sensor_id;sensor_type;location;lat;lon;timestamp;P1;durP1;ratioP1;P2;durP2;ratioP2
43098;SDS011;28715;51.988;6.020;2023-04-24T00:02:02;0.00;;;0.00;;
43098;SDS011;28715;51.988;6.020;2023-04-24T00:04:28;0.00;;;0.00;;
43098;SDS011;28715;51.988;6.020;2023-04-24T00:07:00;0.00;;;0.00;;
43098;SDS011;28715;51.988;6.020;2023-04-24T00:09:26;0.00;;;0.00;;
43098;SDS011;28715;51.988;6.020;2023-04-24T00:11:52;0.00;;;0.00;;
43098;SDS011;28715;51.988;6.020;2023-04-24T00:14:18;0.00;;;0.00;;
43098;SDS011;28715;51.988;6.020;2023-04-24T00:16:44;0.00;;;0.00;;
43098;SDS011;28715;51.988;6.020;2023-04-24T00:19:09;0.00;;;0.00;;
43098;SDS011;28715;51.988;6.020;2023-04-24T00:21:36;0.00;;;0.00;;
43098;SDS011;28715;51.988;6.020;2023-04-24T00:24:02;0.00;;;0.00;;
43098;SDS011;28715;51.988;6.020;2023-04-24T00:26:28;9.73;;;9.33;;
43098;SDS011;28715;51.988;6.020;2023-04-24T00:28:56;0.00;;;0.00;;
43098;SDS011;28715;51.988;6.020;2023-04-24T00:31:22;0.40;;;0.40;;
43098;SDS011;28715;51.988;6.020;2023-04-24T00:33:47;1.23;;;1.23;;
43098;SDS011;28715;51.988;6.020;2023-04-24T00:36:13;0.30;;;0.30;;
43098;SDS011;28715;51.988;6.020;2023-04-24T00:38:39;0.00;;;0.00;;
43098;SDS011;28715;51.988;6.020;2023-04-24T00:41:04;38.40;;;36.03;;
43098;SDS011;28715;51.988;6.020;2023-04-24T00:43:30;1.00;;;1.00;;
43098;SDS011;28715;51.988;6.020;2023-04-24T00:45:55;1.40;;;1.40;;
43098;SDS011;28715;51.988;6.020;2023-04-24T00:48:25;3.90;;;3.70;;
43098;SDS011;28715;51.988;6.020;2023-04-24T00:50:51;27.60;;;26.35;;
43098;SDS011;28715;51.988;6.020;2023-04-24T00:53:17;0.00;;;0.00;;
43098;SDS011;28715;51.988;6.020;2023-04-24T00:55:42;0.00;;;0.00;;
43098;SDS011;28715;51.988;6.020;2023-04-24T00:58:08;0.00;;;0.00;;
43098;SDS011;28715;51.988;6.020;2023-04-24T01:00:33;0.00;;;0.00;;
43098;SDS011;28715;51.988;6.020;2023-04-24T01:03:00;0.40;;;0.40;;
43098;SDS011;28715;51.988;6.020;2023-04-24T01:05:29;0.80;;;0.80;;
43098;SDS011;28715;51.988;6.020;2023-04-24T01:07:54;0.30;;;0.30;;
43098;SDS011;28715;51.988;6.020;2023-04-24T01:10:21;0.10;;;0.10;;
43098;SDS011;28715;51.988;6.020;2023-04-24T01:12:47;0.20;;;0.20;;
43098;SDS011;28715;51.988;6.020;2023-04-24T01:15:13;33.13;;;31.13;;
43098;SDS011;28715;51.988;6.020;2023-04-24T01:17:39;1999.90;;;999.90;;
43098;SDS011;28715;51.988;6.020;2023-04-24T01:20:04;1999.90;;;999.90;;
43098;SDS011;28715;51.988;6.020;2023-04-24T01:22:32;1999.90;;;999.90;;
43098;SDS011;28715;51.988;6.020;2023-04-24T01:24:59;0.10;;;0.10;;
43098;SDS011;28715;51.988;6.020;2023-04-24T01:27:24;0.10;;;0.10;;
43098;SDS011;28715;51.988;6.020;2023-04-24T01:29:50;0.10;;;0.10;;
43098;SDS011;28715;51.988;6.020;2023-04-24T01:32:17;7.68;;;7.38;;
43098;SDS011;28715;51.988;6.020;2023-04-24T01:34:43;0.00;;;0.00;;
43098;SDS011;28715;51.988;6.020;2023-04-24T01:37:10;0.00;;;0.00;;
43098;SDS011;28715;51.988;6.020;2023-04-24T01:39:35;0.00;;;0.00;;
43098;SDS011;28715;51.988;6.020;2023-04-24T01:42:01;0.00;;;0.00;;
43098;SDS011;28715;51.988;6.020;2023-04-24T01:44:30;0.00;;;0.00;;
43098;SDS011;28715;51.988;6.020;2023-04-24T01:46:56;0.00;;;0.00;;
43098;SDS011;28715;51.988;6.020;2023-04-24T01:49:21;0.00;;;0.00;;
43098;SDS011;28715;51.988;6.020;2023-04-24T01:51:47;0.00;;;0.00;;
43098;SDS011;28715;51.988;6.020;2023-04-24T01:54:13;0.00;;;0.00;;
43098;SDS011;28715;51.988;6.020;2023-04-24T01:56:42;0.00;;;0.00;;
43098;SDS011;28715;51.988;6.020;2023-04-24T02:01:37;0.00;;;0.00;;
43098;SDS011;28715;51.988;6.020;2023-04-24T02:04:04;0.00;;;0.00;;
43098;SDS011;28715;51.988;6.020;2023-04-24T02:06:31;0.00;;;0.00;;
43098;SDS011;28715;51.988;6.020;2023-04-24T02:08:59;0.00;;;0.00;;
43098;SDS011;28715;51.988;6.020;2023-04-24T02:11:25;0.00;;;0.00;;
43098;SDS011;28715;51.988;6.020;2023-04-24T02:13:51;0.00;;;0.00;;
43098;SDS011;28715;51.988;6.020;2023-04-24T02:16:17;0.00;;;0.00;;
43098;SDS011;28715;51.988;6.020;2023-04-24T02:18:45;0.00;;;0.00;;
43098;SDS011;28715;51.988;6.020;2023-04-24T02:21:11;0.00;;;0.00;;
43098;SDS011;28715;51.988;6.020;2023-04-24T02:23:36;0.00;;;0.00;;
43098;SDS011;28715;51.988;6.020;2023-04-24T02:26:10;0.00;;;0.00;;
43098;SDS011;28715;51.988;6.020;2023-04-24T02:28:39;0.00;;;0.00;;
43098;SDS011;28715;51.988;6.020;2023-04-24T02:31:05;0.00;;;0.00;;
43098;SDS011;28715;51.988;6.020;2023-04-24T02:33:31;0.00;;;0.00;;
43098;SDS011;28715;51.988;6.020;2023-04-24T02:35:56;0.00;;;0.00;;
43098;SDS011;28715;51.988;6.020;2023-04-24T02:38:22;0.00;;;0.00;;
43098;SDS011;28715;51.988;6.020;2023-04-24T02:40:47;0.00;;;0.00;;
43098;SDS011;28715;51.988;6.020;2023-04-24T02:43:13;0.00;;;0.00;;
43098;SDS011;28715;51.988;6.020;2023-04-24T02:45:38;0.00;;;0.00;;
43098;SDS011;28715;51.988;6.020;2023-04-24T02:48:04;0.00;;;0.00;;
43098;SDS011;28715;51.988;6.020;2023-04-24T02:50:30;0.00;;;0.00;;
43098;SDS011;28715;51.988;6.020;2023-04-24T02:52:55;0.00;;;0.00;;
43098;SDS011;28715;51.988;6.020;2023-04-24T02:55:21;0.00;;;0.00;;
43098;SDS011;28715;51.988;6.020;2023-04-24T02:57:46;0.00;;;0.00;;
43098;SDS011;28715;51.988;6.020;2023-04-24T03:00:12;0.00;;;0.00;;
43098;SDS011;28715;51.988;6.020;2023-04-24T03:02:38;0.10;;;0.10;;
43098;SDS011;28715;51.988;6.020;2023-04-24T03:05:04;0.00;;;0.00;;
43098;SDS011;28715;51.988;6.020;2023-04-24T03:07:29;0.00;;;0.00;;
43098;SDS011;28715;51.988;6.020;2023-04-24T03:09:56;0.10;;;0.10;;
43098;SDS011;28715;51.988;6.020;2023-04-24T03:12:23;0.00;;;0.00;;
43098;SDS011;28715;51.988;6.020;2023-04-24T03:14:48;0.00;;;0.00;;
43098;SDS011;28715;51.988;6.020;2023-04-24T03:17:14;0.00;;;0.00;;
43098;SDS011;28715;51.988;6.020;2023-04-24T03:19:40;0.00;;;0.00;;
43098;SDS011;28715;51.988;6.020;2023-04-24T03:22:05;0.00;;;0.00;;
43098;SDS011;28715;51.988;6.020;2023-04-24T03:24:31;0.00;;;0.00;;
43098;SDS011;28715;51.988;6.020;2023-04-24T03:26:57;0.00;;;0.00;;
43098;SDS011;28715;51.988;6.020;2023-04-24T03:29:23;0.00;;;0.00;;
43098;SDS011;28715;51.988;6.020;2023-04-24T03:31:49;4.17;;;3.97;;
43098;SDS011;28715;51.988;6.020;2023-04-24T03:34:15;0.00;;;0.00;;
43098;SDS011;28715;51.988;6.020;2023-04-24T03:36:40;0.00;;;0.00;;
43098;SDS011;28715;51.988;6.020;2023-04-24T03:39:09;0.00;;;0.00;;
43098;SDS011;28715;51.988;6.020;2023-04-24T03:41:35;0.03;;;0.03;;
43098;SDS011;28715;51.988;6.020;2023-04-24T03:44:00;0.00;;;0.00;;
43098;SDS011;28715;51.988;6.020;2023-04-24T03:46:27;0.00;;;0.00;;
43098;SDS011;28715;51.988;6.020;2023-04-24T03:48:52;0.00;;;0.00;;
43098;SDS011;28715;51.988;6.020;2023-04-24T03:51:18;0.00;;;0.00;;
43098;SDS011;28715;51.988;6.020;2023-04-24T03:53:50;0.00;;;0.00;;
43098;SDS011;28715;51.988;6.020;2023-04-24T03:56:16;0.00;;;0.00;;
43098;SDS011;28715;51.988;6.020;2023-04-24T03:58:42;0.00;;;0.00;;
43098;SDS011;28715;51.988;6.020;2023-04-24T04:01:07;0.00;;;0.00;;
43098;SDS011;28715;51.988;6.020;2023-04-24T04:03:33;0.00;;;0.00;;
43098;SDS011;28715;51.988;6.020;2023-04-24T04:05:59;0.00;;;0.00;;
43098;SDS011;28715;51.988;6.020;2023-04-24T04:08:24;49.27;;;47.03;;
43098;SDS011;28715;51.988;6.020;2023-04-24T04:10:50;1999.90;;;999.90;;
43098;SDS011;28715;51.988;6.020;2023-04-24T04:13:15;1999.90;;;999.90;;
43098;SDS011;28715;51.988;6.020;2023-04-24T04:15:41;1999.90;;;999.90;;
43098;SDS011;28715;51.988;6.020;2023-04-24T04:18:06;1999.90;;;999.90;;
43098;SDS011;28715;51.988;6.020;2023-04-24T04:20:33;1999.90;;;999.90;;
43098;SDS011;28715;51.988;6.020;2023-04-24T04:22:58;1999.90;;;999.90;;
43098;SDS011;28715;51.988;6.020;2023-04-24T04:25:24;1999.90;;;999.90;;
43098;SDS011;28715;51.988;6.020;2023-04-24T04:27:50;1999.90;;;999.90;;
43098;SDS011;28715;51.988;6.020;2023-04-24T04:30:16;1999.90;;;999.90;;
43098;SDS011;28715;51.988;6.020;2023-04-24T04:32:43;1999.90;;;999.90;;
43098;SDS011;28715;51.988;6.020;2023-04-24T04:35:09;1999.90;;;999.90;;
43098;SDS011;28715;51.988;6.020;2023-04-24T04:37:38;1999.90;;;999.90;;
43098;SDS011;28715;51.988;6.020;2023-04-24T04:40:05;1999.90;;;999.90;;
43098;SDS011;28715;51.988;6.020;2023-04-24T04:42:32;1999.90;;;999.90;;
43098;SDS011;28715;51.988;6.020;2023-04-24T04:44:59;1999.90;;;999.90;;
43098;SDS011;28715;51.988;6.020;2023-04-24T04:47:24;1999.90;;;999.90;;
43098;SDS011;28715;51.988;6.020;2023-04-24T04:49:51;1999.90;;;999.90;;
43098;SDS011;28715;51.988;6.020;2023-04-24T04:52:17;1999.90;;;999.90;;
43098;SDS011;28715;51.988;6.020;2023-04-24T04:54:43;1999.90;;;999.90;;
43098;SDS011;28715;51.988;6.020;2023-04-24T04:57:09;1999.90;;;999.90;;
43098;SDS011;28715;51.988;6.020;2023-04-24T04:59:35;1999.90;;;999.90;;
43098;SDS011;28715;51.988;6.020;2023-04-24T05:02:02;1999.90;;;999.90;;
43098;SDS011;28715;51.988;6.020;2023-04-24T05:04:27;1999.90;;;999.90;;
43098;SDS011;28715;51.988;6.020;2023-04-24T05:06:53;1999.90;;;999.90;;
43098;SDS011;28715;51.988;6.020;2023-04-24T05:09:21;1999.90;;;999.90;;
43098;SDS011;28715;51.988;6.020;2023-04-24T05:11:47;1999.90;;;999.90;;
43098;SDS011;28715;51.988;6.020;2023-04-24T05:14:12;1999.90;;;999.90;;
43098;SDS011;28715;51.988;6.020;2023-04-24T05:16:38;1999.90;;;999.90;;
43098;SDS011;28715;51.988;6.020;2023-04-24T05:19:05;1999.90;;;999.90;;
43098;SDS011;28715;51.988;6.020;2023-04-24T05:21:30;1999.90;;;999.90;;
43098;SDS011;28715;51.988;6.020;2023-04-24T05:23:56;1999.90;;;999.90;;
43098;SDS011;28715;51.988;6.020;2023-04-24T05:26:22;1999.90;;;999.90;;
43098;SDS011;28715;51.988;6.020;2023-04-24T05:28:47;1999.90;;;999.90;;
43098;SDS011;28715;51.988;6.020;2023-04-24T05:31:13;1999.90;;;999.90;;
43098;SDS011;28715;51.988;6.020;2023-04-24T05:33:39;1999.90;;;999.90;;
43098;SDS011;28715;51.988;6.020;2023-04-24T05:36:04;1999.90;;;999.90;;
43098;SDS011;28715;51.988;6.020;2023-04-24T05:38:31;1999.90;;;999.90;;
43098;SDS011;28715;51.988;6.020;2023-04-24T05:40:57;1999.90;;;999.90;;
43098;SDS011;28715;51.988;6.020;2023-04-24T05:43:22;1999.90;;;999.90;;
43098;SDS011;28715;51.988;6.020;2023-04-24T05:45:48;1999.90;;;999.90;;
43098;SDS011;28715;51.988;6.020;2023-04-24T05:48:13;1999.90;;;999.90;;
43098;SDS011;28715;51.988;6.020;2023-04-24T05:50:39;1999.90;;;999.90;;
43098;SDS011;28715;51.988;6.020;2023-04-24T05:53:08;1999.90;;;999.90;;
43098;SDS011;28715;51.988;6.020;2023-04-24T05:55:35;1999.90;;;999.90;;
43098;SDS011;28715;51.988;6.020;2023-04-24T05:58:03;1999.90;;;999.90;;
43098;SDS011;28715;51.988;6.020;2023-04-24T06:00:28;1999.90;;;999.90;;
43098;SDS011;28715;51.988;6.020;2023-04-24T06:02:54;1999.90;;;999.90;;
43098;SDS011;28715;51.988;6.020;2023-04-24T06:05:22;1999.90;;;999.90;;
43098;SDS011;28715;51.988;6.020;2023-04-24T06:07:47;1999.90;;;999.90;;
43098;SDS011;28715;51.988;6.020;2023-04-24T06:10:13;1999.90;;;999.90;;
43098;SDS011;28715;51.988;6.020;2023-04-24T06:12:39;1999.90;;;999.90;;
43098;SDS011;28715;51.988;6.020;2023-04-24T06:15:04;1999.90;;;999.90;;
43098;SDS011;28715;51.988;6.020;2023-04-24T06:17:31;1999.90;;;999.90;;
43098;SDS011;28715;51.988;6.020;2023-04-24T06:19:57;1999.90;;;999.90;;
43098;SDS011;28715;51.988;6.020;2023-04-24T06:22:22;1999.90;;;999.90;;
43098;SDS011;28715;51.988;6.020;2023-04-24T06:24:48;1999.90;;;999.90;;
43098;SDS011;28715;51.988;6.020;2023-04-24T06:27:14;1999.90;;;999.90;;
43098;SDS011;28715;51.988;6.020;2023-04-24T06:29:39;1999.90;;;999.90;;
43098;SDS011;28715;51.988;6.020;2023-04-24T06:32:05;1999.90;;;999.90;;
43098;SDS011;28715;51.988;6.020;2023-04-24T06:34:30;1999.90;;;999.90;;
43098;SDS011;28715;51.988;6.020;2023-04-24T06:36:57;1999.90;;;999.90;;
43098;SDS011;28715;51.988;6.020;2023-04-24T06:39:23;1999.90;;;999.90;;
43098;SDS011;28715;51.988;6.020;2023-04-24T06:41:48;1999.90;;;999.90;;
43098;SDS011;28715;51.988;6.020;2023-04-24T06:44:14;1999.90;;;999.90;;
43098;SDS011;28715;51.988;6.020;2023-04-24T06:46:40;1999.90;;;999.90;;
43098;SDS011;28715;51.988;6.020;2023-04-24T06:49:06;1999.90;;;999.90;;
43098;SDS011;28715;51.988;6.020;2023-04-24T06:51:32;1999.90;;;999.90;;
43098;SDS011;28715;51.988;6.020;2023-04-24T06:53:58;1999.90;;;999.90;;
43098;SDS011;28715;51.988;6.020;2023-04-24T06:56:24;1999.90;;;999.90;;
43098;SDS011;28715;51.988;6.020;2023-04-24T06:58:50;1999.90;;;999.90;;
43098;SDS011;28715;51.988;6.020;2023-04-24T07:01:16;1999.90;;;999.90;;
43098;SDS011;28715;51.988;6.020;2023-04-24T07:03:42;1999.90;;;999.90;;
43098;SDS011;28715;51.988;6.020;2023-04-24T07:06:08;1999.90;;;999.90;;
43098;SDS011;28715;51.988;6.020;2023-04-24T07:08:36;1999.90;;;999.90;;
43098;SDS011;28715;51.988;6.020;2023-04-24T07:11:01;1999.90;;;999.90;;
43098;SDS011;28715;51.988;6.020;2023-04-24T07:13:27;1999.90;;;999.90;;
43098;SDS011;28715;51.988;6.020;2023-04-24T07:15:53;1999.90;;;999.90;;
43098;SDS011;28715;51.988;6.020;2023-04-24T07:18:20;1999.90;;;999.90;;
43098;SDS011;28715;51.988;6.020;2023-04-24T07:20:45;74.80;;;39.23;;
43098;SDS011;28715;51.988;6.020;2023-04-24T07:23:11;0.00;;;0.00;;
43098;SDS011;28715;51.988;6.020;2023-04-24T07:25:37;0.00;;;0.00;;
43098;SDS011;28715;51.988;6.020;2023-04-24T07:28:03;0.00;;;0.00;;
43098;SDS011;28715;51.988;6.020;2023-04-24T07:30:29;0.00;;;0.00;;
43098;SDS011;28715;51.988;6.020;2023-04-24T07:32:57;0.00;;;0.00;;
43098;SDS011;28715;51.988;6.020;2023-04-24T07:35:23;0.00;;;0.00;;
43098;SDS011;28715;51.988;6.020;2023-04-24T07:37:50;0.00;;;0.00;;
43098;SDS011;28715;51.988;6.020;2023-04-24T07:40:16;0.00;;;0.00;;
43098;SDS011;28715;51.988;6.020;2023-04-24T07:42:42;0.00;;;0.00;;
43098;SDS011;28715;51.988;6.020;2023-04-24T07:45:08;0.00;;;0.00;;
43098;SDS011;28715;51.988;6.020;2023-04-24T07:47:34;0.00;;;0.00;;
43098;SDS011;28715;51.988;6.020;2023-04-24T07:50:01;0.00;;;0.00;;
43098;SDS011;28715;51.988;6.020;2023-04-24T07:52:27;0.00;;;0.00;;
43098;SDS011;28715;51.988;6.020;2023-04-24T07:54:52;0.00;;;0.00;;
43098;SDS011;28715;51.988;6.020;2023-04-24T07:57:23;6.68;;;4.65;;
43098;SDS011;28715;51.988;6.020;2023-04-24T07:59:50;6.63;;;2.47;;
43098;SDS011;28715;51.988;6.020;2023-04-24T08:02:15;5.70;;;2.33;;
43098;SDS011;28715;51.988;6.020;2023-04-24T08:04:41;7.30;;;3.03;;
43098;SDS011;28715;51.988;6.020;2023-04-24T08:07:06;6.00;;;3.10;;
43098;SDS011;28715;51.988;6.020;2023-04-24T08:09:33;10.63;;;4.20;;
43098;SDS011;28715;51.988;6.020;2023-04-24T08:11:58;6.60;;;3.87;;
43098;SDS011;28715;51.988;6.020;2023-04-24T08:14:24;10.23;;;5.47;;
43098;SDS011;28715;51.988;6.020;2023-04-24T08:16:50;8.93;;;5.60;;
43098;SDS011;28715;51.988;6.020;2023-04-24T08:19:15;12.63;;;6.53;;
43098;SDS011;28715;51.988;6.020;2023-04-24T08:21:41;13.60;;;6.63;;
43098;SDS011;28715;51.988;6.020;2023-04-24T08:24:06;15.63;;;7.23;;
43098;SDS011;28715;51.988;6.020;2023-04-24T08:26:33;11.18;;;6.28;;
43098;SDS011;28715;51.988;6.020;2023-04-24T08:28:58;1999.90;;;999.90;;
43098;SDS011;28715;51.988;6.020;2023-04-24T08:31:24;1999.90;;;999.90;;
43098;SDS011;28715;51.988;6.020;2023-04-24T08:33:51;1999.90;;;999.90;;
43098;SDS011;28715;51.988;6.020;2023-04-24T08:36:16;1999.90;;;999.90;;
43098;SDS011;28715;51.988;6.020;2023-04-24T08:38:42;1999.90;;;999.90;;
43098;SDS011;28715;51.988;6.020;2023-04-24T08:41:07;1999.90;;;999.90;;
43098;SDS011;28715;51.988;6.020;2023-04-24T08:43:34;1999.90;;;999.90;;
43098;SDS011;28715;51.988;6.020;2023-04-24T08:46:03;1999.90;;;999.90;;
43098;SDS011;28715;51.988;6.020;2023-04-24T08:48:29;1999.90;;;999.90;;
43098;SDS011;28715;51.988;6.020;2023-04-24T08:50:56;1999.90;;;999.90;;
43098;SDS011;28715;51.988;6.020;2023-04-24T08:53:22;1999.90;;;999.90;;
43098;SDS011;28715;51.988;6.020;2023-04-24T08:55:50;133.80;;;121.80;;
43098;SDS011;28715;51.988;6.020;2023-04-24T08:58:18;1999.90;;;999.90;;
43098;SDS011;28715;51.988;6.020;2023-04-24T09:00:44;1999.90;;;999.90;;
43098;SDS011;28715;51.988;6.020;2023-04-24T09:03:13;1999.90;;;999.90;;
43098;SDS011;28715;51.988;6.020;2023-04-24T09:05:40;1999.90;;;999.90;;
43098;SDS011;28715;51.988;6.020;2023-04-24T09:08:10;12.90;;;4.63;;
43098;SDS011;28715;51.988;6.020;2023-04-24T09:10:38;9.35;;;3.47;;
43098;SDS011;28715;51.988;6.020;2023-04-24T09:13:04;6.22;;;3.38;;
43098;SDS011;28715;51.988;6.020;2023-04-24T09:15:30;4.10;;;1.83;;
43098;SDS011;28715;51.988;6.020;2023-04-24T09:17:56;6.07;;;5.78;;
43098;SDS011;28715;51.988;6.020;2023-04-24T09:20:22;1.20;;;1.20;;
43098;SDS011;28715;51.988;6.020;2023-04-24T09:22:48;1999.90;;;999.90;;
43098;SDS011;28715;51.988;6.020;2023-04-24T09:25:18;1999.90;;;999.90;;
43098;SDS011;28715;51.988;6.020;2023-04-24T09:27:44;1999.90;;;999.90;;
43098;SDS011;28715;51.988;6.020;2023-04-24T09:30:11;1999.90;;;999.90;;
43098;SDS011;28715;51.988;6.020;2023-04-24T09:32:37;1999.90;;;999.90;;
43098;SDS011;28715;51.988;6.020;2023-04-24T09:35:06;1999.90;;;999.90;;
43098;SDS011;28715;51.988;6.020;2023-04-24T09:37:41;1999.90;;;999.90;;
43098;SDS011;28715;51.988;6.020;2023-04-24T09:40:15;1999.90;;;999.90;;
43098;SDS011;28715;51.988;6.020;2023-04-24T09:42:46;1999.90;;;999.90;;
43098;SDS011;28715;51.988;6.020;2023-04-24T09:45:18;1999.90;;;999.90;;
43098;SDS011;28715;51.988;6.020;2023-04-24T09:47:45;1999.90;;;999.90;;
43098;SDS011;28715;51.988;6.020;2023-04-24T09:50:15;1999.90;;;999.90;;
43098;SDS011;28715;51.988;6.020;2023-04-24T09:52:45;1999.90;;;999.90;;
43098;SDS011;28715;51.988;6.020;2023-04-24T09:55:21;1999.90;;;999.90;;
43098;SDS011;28715;51.988;6.020;2023-04-24T09:57:48;1999.90;;;999.90;;
43098;SDS011;28715;51.988;6.020;2023-04-24T10:00:28;1999.90;;;999.90;;
43098;SDS011;28715;51.988;6.020;2023-04-24T10:02:56;1999.90;;;999.90;;
43098;SDS011;28715;51.988;6.020;2023-04-24T10:05:23;1999.90;;;999.90;;
43098;SDS011;28715;51.988;6.020;2023-04-24T10:07:55;1999.90;;;999.90;;
43098;SDS011;28715;51.988;6.020;2023-04-24T10:10:22;1999.90;;;999.90;;
43098;SDS011;28715;51.988;6.020;2023-04-24T10:12:48;1999.90;;;999.90;;
43098;SDS011;28715;51.988;6.020;2023-04-24T10:15:15;1999.90;;;999.90;;
43098;SDS011;28715;51.988;6.020;2023-04-24T10:17:46;1999.90;;;999.90;;
43098;SDS011;28715;51.988;6.020;2023-04-24T10:20:17;60.20;;;49.88;;
43098;SDS011;28715;51.988;6.020;2023-04-24T10:22:44;0.00;;;0.00;;
43098;SDS011;28715;51.988;6.020;2023-04-24T10:25:17;0.00;;;0.00;;
43098;SDS011;28715;51.988;6.020;2023-04-24T10:27:57;0.00;;;0.00;;
43098;SDS011;28715;51.988;6.020;2023-04-24T10:30:27;8.05;;;1.48;;
43098;SDS011;28715;51.988;6.020;2023-04-24T10:32:56;13.95;;;2.83;;
43098;SDS011;28715;51.988;6.020;2023-04-24T10:35:22;11.93;;;3.20;;
43098;SDS011;28715;51.988;6.020;2023-04-24T10:37:54;9.55;;;2.70;;
43098;SDS011;28715;51.988;6.020;2023-04-24T10:40:27;14.38;;;2.50;;
43098;SDS011;28715;51.988;6.020;2023-04-24T10:42:58;9.93;;;1.90;;
43098;SDS011;28715;51.988;6.020;2023-04-24T10:45:26;7.43;;;1.90;;
43098;SDS011;28715;51.988;6.020;2023-04-24T10:47:53;5.67;;;2.07;;
43098;SDS011;28715;51.988;6.020;2023-04-24T10:50:27;8.18;;;1.42;;
43098;SDS011;28715;51.988;6.020;2023-04-24T10:53:04;1.38;;;0.43;;
43098;SDS011;28715;51.988;6.020;2023-04-24T10:55:41;0.10;;;0.10;;
43098;SDS011;28715;51.988;6.020;2023-04-24T10:58:11;0.70;;;0.57;;
43098;SDS011;28715;51.988;6.020;2023-04-24T11:00:38;0.10;;;0.10;;
43098;SDS011;28715;51.988;6.020;2023-04-24T11:03:06;1.58;;;0.85;;
43098;SDS011;28715;51.988;6.020;2023-04-24T11:05:53;1.63;;;0.32;;
43098;SDS011;28715;51.988;6.020;2023-04-24T11:08:26;0.13;;;0.10;;
43098;SDS011;28715;51.988;6.020;2023-04-24T11:13:27;0.30;;;0.10;;
43098;SDS011;28715;51.988;6.020;2023-04-24T11:16:14;0.52;;;0.32;;
43098;SDS011;28715;51.988;6.020;2023-04-24T11:18:45;0.55;;;0.13;;
43098;SDS011;28715;51.988;6.020;2023-04-24T11:21:16;0.47;;;0.10;;
43098;SDS011;28715;51.988;6.020;2023-04-24T11:23:42;1.55;;;0.65;;
43098;SDS011;28715;51.988;6.020;2023-04-24T11:26:09;0.15;;;0.15;;
43098;SDS011;28715;51.988;6.020;2023-04-24T11:28:46;0.00;;;0.00;;
43098;SDS011;28715;51.988;6.020;2023-04-24T11:34:08;0.93;;;0.50;;
43098;SDS011;28715;51.988;6.020;2023-04-24T11:36:35;0.40;;;0.20;;
43098;SDS011;28715;51.988;6.020;2023-04-24T11:39:01;2.97;;;0.70;;
43098;SDS011;28715;51.988;6.020;2023-04-24T11:41:28;3.90;;;0.90;;
43098;SDS011;28715;51.988;6.020;2023-04-24T11:43:55;2.78;;;0.60;;
43098;SDS011;28715;51.988;6.020;2023-04-24T11:46:21;2.50;;;0.50;;
43098;SDS011;28715;51.988;6.020;2023-04-24T11:48:47;0.70;;;0.20;;
43098;SDS011;28715;51.988;6.020;2023-04-24T11:51:13;1.83;;;0.50;;
43098;SDS011;28715;51.988;6.020;2023-04-24T11:53:39;1.13;;;0.20;;
43098;SDS011;28715;51.988;6.020;2023-04-24T11:56:05;3.60;;;0.40;;
43098;SDS011;28715;51.988;6.020;2023-04-24T11:58:37;1.60;;;0.30;;
43098;SDS011;28715;51.988;6.020;2023-04-24T12:01:04;0.90;;;0.20;;
43098;SDS011;28715;51.988;6.020;2023-04-24T12:03:30;2.95;;;0.28;;
43098;SDS011;28715;51.988;6.020;2023-04-24T12:06:09;0.00;;;0.00;;
43098;SDS011;28715;51.988;6.020;2023-04-24T12:08:35;3.60;;;0.60;;
43098;SDS011;28715;51.988;6.020;2023-04-24T12:11:02;0.00;;;0.00;;
43098;SDS011;28715;51.988;6.020;2023-04-24T12:13:29;0.00;;;0.00;;
43098;SDS011;28715;51.988;6.020;2023-04-24T12:15:56;0.00;;;0.00;;
43098;SDS011;28715;51.988;6.020;2023-04-24T12:18:22;0.00;;;0.00;;
43098;SDS011;28715;51.988;6.020;2023-04-24T12:20:49;0.45;;;0.43;;
43098;SDS011;28715;51.988;6.020;2023-04-24T12:23:15;0.20;;;0.10;;
43098;SDS011;28715;51.988;6.020;2023-04-24T12:25:41;0.00;;;0.00;;
43098;SDS011;28715;51.988;6.020;2023-04-24T12:30:39;0.00;;;0.00;;
43098;SDS011;28715;51.988;6.020;2023-04-24T12:33:08;0.30;;;0.30;;
43098;SDS011;28715;51.988;6.020;2023-04-24T12:35:33;1.03;;;0.57;;
43098;SDS011;28715;51.988;6.020;2023-04-24T12:38:10;1999.90;;;999.90;;
43098;SDS011;28715;51.988;6.020;2023-04-24T12:40:38;1999.90;;;999.90;;
43098;SDS011;28715;51.988;6.020;2023-04-24T12:43:17;1999.90;;;999.90;;
43098;SDS011;28715;51.988;6.020;2023-04-24T12:45:44;1999.90;;;999.90;;
43098;SDS011;28715;51.988;6.020;2023-04-24T12:48:10;1999.90;;;999.90;;
43098;SDS011;28715;51.988;6.020;2023-04-24T12:50:35;1999.90;;;999.90;;
43098;SDS011;28715;51.988;6.020;2023-04-24T12:53:01;2.00;;;0.10;;
43098;SDS011;28715;51.988;6.020;2023-04-24T12:55:27;1.03;;;0.20;;
43098;SDS011;28715;51.988;6.020;2023-04-24T12:57:52;1.17;;;0.20;;
43098;SDS011;28715;51.988;6.020;2023-04-24T13:00:20;0.43;;;0.00;;
43098;SDS011;28715;51.988;6.020;2023-04-24T13:02:46;0.57;;;0.10;;
43098;SDS011;28715;51.988;6.020;2023-04-24T13:05:11;0.20;;;0.10;;
43098;SDS011;28715;51.988;6.020;2023-04-24T13:07:38;0.32;;;0.10;;
43098;SDS011;28715;51.988;6.020;2023-04-24T13:10:04;0.00;;;0.00;;
43098;SDS011;28715;51.988;6.020;2023-04-24T13:12:31;0.10;;;0.10;;
43098;SDS011;28715;51.988;6.020;2023-04-24T13:14:57;0.30;;;0.27;;
43098;SDS011;28715;51.988;6.020;2023-04-24T13:17:23;0.63;;;0.35;;
43098;SDS011;28715;51.988;6.020;2023-04-24T13:19:49;0.10;;;0.00;;
43098;SDS011;28715;51.988;6.020;2023-04-24T13:22:16;1.27;;;0.40;;
43098;SDS011;28715;51.988;6.020;2023-04-24T13:24:44;1.45;;;0.25;;
43098;SDS011;28715;51.988;6.020;2023-04-24T13:27:10;0.53;;;0.30;;
43098;SDS011;28715;51.988;6.020;2023-04-24T13:29:36;2.95;;;0.57;;
43098;SDS011;28715;51.988;6.020;2023-04-24T13:32:02;2.25;;;0.30;;
43098;SDS011;28715;51.988;6.020;2023-04-24T13:34:28;0.75;;;0.40;;
43098;SDS011;28715;51.988;6.020;2023-04-24T13:36:54;0.10;;;0.10;;
43098;SDS011;28715;51.988;6.020;2023-04-24T13:39:21;0.20;;;0.10;;
43098;SDS011;28715;51.988;6.020;2023-04-24T13:41:47;0.00;;;0.00;;
43098;SDS011;28715;51.988;6.020;2023-04-24T13:44:13;0.00;;;0.00;;
43098;SDS011;28715;51.988;6.020;2023-04-24T13:49:10;0.30;;;0.20;;
43098;SDS011;28715;51.988;6.020;2023-04-24T13:51:36;0.10;;;0.08;;
43098;SDS011;28715;51.988;6.020;2023-04-24T13:54:01;0.00;;;0.00;;
43098;SDS011;28715;51.988;6.020;2023-04-24T13:56:27;0.37;;;0.07;;
43098;SDS011;28715;51.988;6.020;2023-04-24T13:58:53;0.00;;;0.00;;
43098;SDS011;28715;51.988;6.020;2023-04-24T14:01:21;0.20;;;0.10;;
43098;SDS011;28715;51.988;6.020;2023-04-24T14:03:51;0.00;;;0.00;;
43098;SDS011;28715;51.988;6.020;2023-04-24T14:06:17;0.00;;;0.00;;
43098;SDS011;28715;51.988;6.020;2023-04-24T14:08:44;0.00;;;0.00;;
43098;SDS011;28715;51.988;6.020;2023-04-24T14:11:09;0.00;;;0.00;;
43098;SDS011;28715;51.988;6.020;2023-04-24T14:13:36;0.10;;;0.10;;
43098;SDS011;28715;51.988;6.020;2023-04-24T14:16:02;0.00;;;0.00;;
43098;SDS011;28715;51.988;6.020;2023-04-24T14:18:28;0.00;;;0.00;;
43098;SDS011;28715;51.988;6.020;2023-04-24T14:20:54;0.13;;;0.13;;
43098;SDS011;28715;51.988;6.020;2023-04-24T14:23:20;0.00;;;0.00;;
43098;SDS011;28715;51.988;6.020;2023-04-24T14:25:45;0.60;;;0.30;;
43098;SDS011;28715;51.988;6.020;2023-04-24T14:28:13;0.10;;;0.10;;
43098;SDS011;28715;51.988;6.020;2023-04-24T14:30:38;1999.90;;;999.90;;
43098;SDS011;28715;51.988;6.020;2023-04-24T14:33:05;1005.85;;;505.55;;
43098;SDS011;28715;51.988;6.020;2023-04-24T14:35:31;15.87;;;15.17;;